Shorewood, Wisconsin
Current Conditions -  °F | °C
As of 6:45 PM on Thursday 18 Dec 2014 (Local Time) from KMWC Reporting Station
Overcast Overcast  
Wind Chill: 21°   Ceiling: 1800
Heat Index: 27°   Visibility: 10mi
Dew Point: 21°   Wind: 5mph
Humidity: 80%   Direction: 340°NNW
Pressure: 30.26"   Gusts: NA
Location:  43.0828°N, 87.8841°W
Report Text: KMWC 190045Z AUTO 34004KT 10SM OVC018 M03/M06 A3026
Loading
Personal Weather Stations






























Interactive Weather Map New forecast layout! Learn more

10-Day Weather Forecast

Advertisements
Track Severe Weather on mobile